createdAt,value
2023-01-13T00:00:58.746Z,10.34
2023-01-13T00:03:25.986Z,10.29
2023-01-13T00:05:53.750Z,10.30
2023-01-13T00:08:21.100Z,10.36
2023-01-13T00:10:51.010Z,10.43
2023-01-13T00:13:26.395Z,10.38
2023-01-13T00:15:57.542Z,10.43
2023-01-13T00:18:24.973Z,10.32
2023-01-13T00:21:00.477Z,10.30
2023-01-13T00:23:31.700Z,10.25
2023-01-13T00:25:58.991Z,10.25
2023-01-13T00:28:26.279Z,10.25
2023-01-13T00:30:53.083Z,10.29
2023-01-13T00:33:21.175Z,10.29
2023-01-13T00:35:58.083Z,10.30
2023-01-13T00:38:25.318Z,10.28
2023-01-13T00:40:56.591Z,10.28
2023-01-13T00:43:23.630Z,10.26
2023-01-13T00:45:53.401Z,10.26
2023-01-13T00:48:20.665Z,10.24
2023-01-13T00:50:47.538Z,10.23
2023-01-13T00:53:14.823Z,10.20
2023-01-13T00:55:42.056Z,10.23
2023-01-13T00:58:08.719Z,10.31
2023-01-13T01:00:36.248Z,10.26
2023-01-13T01:03:03.251Z,10.18
2023-01-13T01:05:30.018Z,10.10
2023-01-13T01:07:56.712Z,10.13
2023-01-13T01:10:23.357Z,10.04
2023-01-13T01:12:50.938Z,10.07
2023-01-13T01:15:17.701Z,10.05
2023-01-13T01:17:44.950Z,10.06
2023-01-13T01:20:12.306Z,10.04
2023-01-13T01:22:39.011Z,9.97
2023-01-13T01:25:06.366Z,9.96
2023-01-13T01:27:33.098Z,9.96
2023-01-13T01:29:59.914Z,9.96
2023-01-13T01:32:26.463Z,9.92
2023-01-13T01:34:53.780Z,9.98
2023-01-13T01:37:20.410Z,9.97
2023-01-13T01:39:48.528Z,9.93
2023-01-13T01:42:34.999Z,9.88
2023-01-13T01:45:10.879Z,9.92
2023-01-13T01:47:38.053Z,9.90
2023-01-13T01:50:05.600Z,9.89
2023-01-13T01:52:39.325Z,9.89
2023-01-13T01:55:10.244Z,9.83
2023-01-13T01:58:09.672Z,9.79
2023-01-13T02:00:37.010Z,9.83
2023-01-13T02:03:06.617Z,9.76
2023-01-13T02:05:39.012Z,9.69
2023-01-13T02:08:08.510Z,9.61
2023-01-13T02:10:37.955Z,9.55
2023-01-13T02:13:06.976Z,9.60
2023-01-13T02:15:40.175Z,9.64
2023-01-13T02:18:22.402Z,9.57
2023-01-13T02:20:59.925Z,9.66
2023-01-13T02:23:46.578Z,9.61
2023-01-13T02:26:32.539Z,9.58
2023-01-13T02:29:27.666Z,9.58
2023-01-13T02:31:58.212Z,9.67
2023-01-13T02:34:44.755Z,9.63
2023-01-13T02:37:25.572Z,9.68
2023-01-13T02:40:01.776Z,9.64
2023-01-13T02:42:51.039Z,9.63
2023-01-13T02:45:22.548Z,9.57
2023-01-13T02:47:52.883Z,9.50
2023-01-13T02:50:23.100Z,9.49
2023-01-13T02:52:56.191Z,9.45
2023-01-13T02:55:31.550Z,9.43
2023-01-13T02:57:59.806Z,9.34
2023-01-13T03:00:28.202Z,9.33
2023-01-13T03:02:55.030Z,9.37
2023-01-13T03:05:22.641Z,9.33
2023-01-13T03:07:49.672Z,9.20
2023-01-13T03:10:24.482Z,9.22
2023-01-13T03:12:59.663Z,9.06
2023-01-13T03:15:42.933Z,9.06
2023-01-13T03:18:17.052Z,9.04
2023-01-13T03:20:48.726Z,9.01
2023-01-13T03:23:22.107Z,8.93
2023-01-13T03:26:09.148Z,9.01
2023-01-13T03:28:40.843Z,8.96
2023-01-13T03:31:11.901Z,8.92
2023-01-13T03:33:51.483Z,8.90
2023-01-13T03:36:21.312Z,8.93
2023-01-13T03:38:52.750Z,8.89
2023-01-13T03:41:24.927Z,8.83
2023-01-13T03:44:21.590Z,8.82
2023-01-13T03:47:24.271Z,8.90
2023-01-13T03:49:54.171Z,8.88
2023-01-13T03:52:30.948Z,8.88
2023-01-13T03:55:01.931Z,8.80
2023-01-13T03:57:31.446Z,8.74
2023-01-13T04:00:00.041Z,8.69
2023-01-13T04:02:26.746Z,8.67
2023-01-13T04:04:53.759Z,8.64
2023-01-13T04:07:20.760Z,8.66
2023-01-13T04:09:57.855Z,8.67
2023-01-13T04:12:26.318Z,8.61
2023-01-13T04:14:53.821Z,8.63
2023-01-13T04:17:20.873Z,8.68
2023-01-13T04:19:47.765Z,8.57
2023-01-13T04:22:14.842Z,8.61
2023-01-13T04:24:41.450Z,8.61
2023-01-13T04:27:08.479Z,8.62
2023-01-13T04:29:35.686Z,8.61
2023-01-13T04:32:02.685Z,8.65
2023-01-13T04:34:30.117Z,8.65
2023-01-13T04:36:57.032Z,8.66
2023-01-13T04:39:23.944Z,8.68
2023-01-13T04:41:59.847Z,8.75
2023-01-13T04:44:27.404Z,8.72
2023-01-13T04:46:54.345Z,8.74
2023-01-13T04:49:21.007Z,8.74
2023-01-13T04:51:47.855Z,8.73
2023-01-13T04:54:14.884Z,8.78
2023-01-13T04:56:42.000Z,8.78
2023-01-13T04:59:12.433Z,8.85
2023-01-13T05:01:39.573Z,8.82
2023-01-13T05:04:07.321Z,8.82
2023-01-13T05:06:34.409Z,8.83
2023-01-13T05:09:01.411Z,8.77
2023-01-13T05:11:46.652Z,8.85
2023-01-13T05:14:32.380Z,8.82
2023-01-13T05:17:02.022Z,8.79
2023-01-13T05:19:35.443Z,8.83
2023-01-13T05:22:21.355Z,8.81
2023-01-13T05:25:06.622Z,8.81
2023-01-13T05:27:34.133Z,8.80
2023-01-13T05:30:01.172Z,8.81
2023-01-13T05:32:28.063Z,8.81
2023-01-13T05:34:55.954Z,8.83
2023-01-13T05:37:23.816Z,8.79
2023-01-13T05:40:10.773Z,8.75
2023-01-13T05:42:57.314Z,8.76
2023-01-13T05:45:24.218Z,8.77
2023-01-13T05:47:51.138Z,8.72
2023-01-13T05:50:18.706Z,8.84
2023-01-13T05:52:45.755Z,8.76
2023-01-13T05:55:12.495Z,8.79
2023-01-13T05:57:39.519Z,8.75
2023-01-13T06:00:06.867Z,8.71
2023-01-13T06:02:33.858Z,8.71
2023-01-13T06:05:00.600Z,8.69
2023-01-13T06:07:27.472Z,8.66
2023-01-13T06:09:54.309Z,8.61
2023-01-13T06:12:21.633Z,8.62
2023-01-13T06:14:48.267Z,8.57
2023-01-13T06:17:16.393Z,8.58
2023-01-13T06:19:43.347Z,8.55
2023-01-13T06:22:13.521Z,8.49
2023-01-13T06:24:41.011Z,8.46
2023-01-13T06:27:08.328Z,8.41
2023-01-13T06:29:35.456Z,8.37
2023-01-13T06:32:03.763Z,8.35
2023-01-13T06:34:30.638Z,8.37
2023-01-13T06:36:57.581Z,8.30
2023-01-13T06:39:27.477Z,8.27
2023-01-13T06:42:13.446Z,8.19
2023-01-13T06:44:40.210Z,8.24
2023-01-13T06:47:07.814Z,8.20
2023-01-13T06:49:34.829Z,8.25
2023-01-13T06:52:01.629Z,8.16
2023-01-13T06:54:28.125Z,8.18
2023-01-13T06:56:55.371Z,8.27
2023-01-13T06:59:22.740Z,8.19
2023-01-13T07:01:49.723Z,8.26
2023-01-13T07:04:16.619Z,8.27
2023-01-13T07:06:43.368Z,8.24
2023-01-13T07:09:10.710Z,8.16
2023-01-13T07:11:37.296Z,8.27
2023-01-13T07:14:22.595Z,8.33
2023-01-13T07:16:49.684Z,8.30
2023-01-13T07:19:23.151Z,8.22
2023-01-13T07:21:51.720Z,8.25
2023-01-13T07:24:19.441Z,8.23
2023-01-13T07:26:46.814Z,8.21
2023-01-13T07:29:14.055Z,8.29
2023-01-13T07:31:41.032Z,8.33
2023-01-13T07:34:07.775Z,8.37
2023-01-13T07:36:34.878Z,8.37
2023-01-13T07:39:01.962Z,8.40
2023-01-13T07:41:47.275Z,8.52
2023-01-13T07:44:14.137Z,8.43
2023-01-13T07:46:41.842Z,8.52
2023-01-13T07:49:09.151Z,8.51
2023-01-13T07:51:39.342Z,8.53
2023-01-13T07:54:06.083Z,8.53
2023-01-13T07:56:33.241Z,8.57
2023-01-13T07:59:00.301Z,8.68
2023-01-13T08:01:29.777Z,8.69
2023-01-13T08:03:57.690Z,8.70
2023-01-13T08:06:25.662Z,8.71
2023-01-13T08:08:53.637Z,8.68
2023-01-13T08:11:23.398Z,8.71
2023-01-13T08:13:50.332Z,8.69
2023-01-13T08:16:17.719Z,8.76
2023-01-13T08:18:44.773Z,8.69
2023-01-13T08:21:14.922Z,8.77
2023-01-13T08:23:42.159Z,8.78
2023-01-13T08:26:10.475Z,8.73
2023-01-13T08:28:37.768Z,8.73
2023-01-13T08:31:05.740Z,8.76
2023-01-13T08:33:32.513Z,8.79
2023-01-13T08:36:02.741Z,8.78
2023-01-13T08:38:29.459Z,8.83
2023-01-13T08:40:56.349Z,8.77
2023-01-13T08:43:23.232Z,8.77
2023-01-13T08:45:57.334Z,8.74
2023-01-13T08:48:24.404Z,8.76
2023-01-13T08:50:51.260Z,8.85
2023-01-13T08:53:18.330Z,8.77
2023-01-13T08:55:45.074Z,8.73
2023-01-13T08:58:15.834Z,8.81
2023-01-13T09:00:43.632Z,8.78
2023-01-13T09:03:10.487Z,8.82
2023-01-13T09:05:37.058Z,8.75
2023-01-13T09:08:04.087Z,8.83
2023-01-13T09:10:31.806Z,8.79
2023-01-13T09:13:14.172Z,8.87
2023-01-13T09:15:42.266Z,8.90
2023-01-13T09:18:09.084Z,8.80
2023-01-13T09:20:36.270Z,8.73
2023-01-13T09:23:04.065Z,8.72
2023-01-13T09:25:31.108Z,8.68
2023-01-13T09:27:58.030Z,8.68
2023-01-13T09:30:25.167Z,8.66
2023-01-13T09:33:12.277Z,8.71
2023-01-13T09:35:38.972Z,8.69
2023-01-13T09:38:06.880Z,8.66
2023-01-13T09:40:33.810Z,8.65
2023-01-13T09:43:39.496Z,8.71
2023-01-13T09:46:39.963Z,8.69
2023-01-13T09:49:11.194Z,8.74
2023-01-13T09:51:41.693Z,8.72
2023-01-13T09:54:13.688Z,8.72
2023-01-13T09:56:40.477Z,8.78
2023-01-13T09:59:10.516Z,8.86
2023-01-13T10:01:43.637Z,8.90
2023-01-13T10:04:12.863Z,9.03
2023-01-13T10:06:43.436Z,9.09
2023-01-13T10:09:18.329Z,9.14
2023-01-13T10:12:05.770Z,9.11
2023-01-13T10:14:32.587Z,9.13
2023-01-13T10:17:02.601Z,9.21
2023-01-13T10:19:37.988Z,9.24
2023-01-13T10:22:23.515Z,9.24
2023-01-13T10:24:59.666Z,9.25
2023-01-13T10:27:37.000Z,9.33
2023-01-13T10:30:18.341Z,9.36
2023-01-13T10:32:55.750Z,9.43
2023-01-13T10:35:41.605Z,9.58
2023-01-13T10:38:16.034Z,9.73
2023-01-13T10:40:47.835Z,9.73
2023-01-13T10:43:14.553Z,9.81
2023-01-13T10:45:41.375Z,9.80
2023-01-13T10:48:13.980Z,9.92
2023-01-13T10:50:40.597Z,10.00
2023-01-13T10:53:17.873Z,9.90
2023-01-13T10:55:57.537Z,9.98
2023-01-13T10:58:25.140Z,9.93
2023-01-13T11:00:59.492Z,9.94
2023-01-13T11:03:28.086Z,9.88
2023-01-13T11:05:56.656Z,9.82
2023-01-13T11:08:25.286Z,9.83
2023-01-13T11:10:54.026Z,9.72
2023-01-13T11:13:31.919Z,9.67
2023-01-13T11:16:05.429Z,9.56
2023-01-13T11:18:34.965Z,9.49
2023-01-13T11:21:04.953Z,9.34
2023-01-13T11:23:35.483Z,9.30
2023-01-13T11:26:06.738Z,9.22
2023-01-13T11:28:33.645Z,9.29
2023-01-13T11:31:21.263Z,9.31
2023-01-13T11:33:55.498Z,9.35
2023-01-13T11:36:24.939Z,9.53
2023-01-13T11:39:02.890Z,9.56
2023-01-13T11:41:44.170Z,9.64
2023-01-13T11:44:14.215Z,9.56
2023-01-13T11:46:41.283Z,9.50
2023-01-13T11:49:12.019Z,9.42
2023-01-13T11:51:43.307Z,9.36
2023-01-13T11:54:13.266Z,9.27
2023-01-13T11:56:58.387Z,9.24
2023-01-13T11:59:31.208Z,9.11
2023-01-13T12:02:16.100Z,9.13
2023-01-13T12:05:02.707Z,9.03
2023-01-13T12:07:47.854Z,8.96
2023-01-13T12:10:26.162Z,8.86
2023-01-13T12:13:01.700Z,8.76
2023-01-13T12:15:41.562Z,8.74
2023-01-13T12:18:14.151Z,8.75
2023-01-13T12:20:41.602Z,8.74
2023-01-13T12:23:21.294Z,8.76
2023-01-13T12:25:53.426Z,8.74
2023-01-13T12:28:23.757Z,8.79
2023-01-13T12:31:02.604Z,8.81
2023-01-13T12:33:32.622Z,8.74
2023-01-13T12:36:06.892Z,8.84
2023-01-13T12:38:34.437Z,8.81
2023-01-13T12:41:07.643Z,8.86
2023-01-13T12:43:55.368Z,8.85
2023-01-13T12:46:22.272Z,8.80
2023-01-13T12:48:59.363Z,8.83
2023-01-13T12:51:33.262Z,8.85
2023-01-13T12:54:05.378Z,8.77
2023-01-13T12:56:40.268Z,8.77
2023-01-13T12:59:19.356Z,8.81
2023-01-13T13:01:47.184Z,8.73
2023-01-13T13:04:17.782Z,8.81
2023-01-13T13:07:04.812Z,8.85
2023-01-13T13:09:34.894Z,9.02
2023-01-13T13:12:41.051Z,8.98
2023-01-13T13:15:22.016Z,8.95
2023-01-13T13:18:08.733Z,8.97
2023-01-13T13:20:54.226Z,8.98
2023-01-13T13:23:40.215Z,8.97
2023-01-13T13:26:21.075Z,8.98
2023-01-13T13:28:51.032Z,9.07
2023-01-13T13:31:20.977Z,8.98
2023-01-13T13:33:55.409Z,8.99
2023-01-13T13:36:36.135Z,9.00
2023-01-13T13:39:29.023Z,8.97
2023-01-13T13:42:19.914Z,8.94
2023-01-13T13:45:06.762Z,8.96
2023-01-13T13:47:38.107Z,8.93
2023-01-13T13:50:06.837Z,8.96
2023-01-13T13:52:38.125Z,8.93
2023-01-13T13:55:20.532Z,8.87
2023-01-13T13:57:51.666Z,8.81
2023-01-13T14:00:29.570Z,8.73
2023-01-13T14:02:58.506Z,8.57
2023-01-13T14:05:30.049Z,8.54
2023-01-13T14:07:59.843Z,8.47
2023-01-13T14:10:33.965Z,8.51
2023-01-13T14:13:03.033Z,8.39
2023-01-13T14:15:31.496Z,8.49
2023-01-13T14:18:00.454Z,8.50
2023-01-13T14:20:28.759Z,8.54
2023-01-13T14:23:01.385Z,8.49
2023-01-13T14:25:28.737Z,8.45
2023-01-13T14:27:56.575Z,8.47
2023-01-13T14:30:24.477Z,8.44
2023-01-13T14:32:51.551Z,8.43
2023-01-13T14:35:18.240Z,8.39
2023-01-13T14:37:50.423Z,8.33
2023-01-13T14:40:44.728Z,8.31
2023-01-13T14:43:16.218Z,8.31
2023-01-13T14:45:58.393Z,8.37
2023-01-13T14:48:33.139Z,8.32
2023-01-13T14:51:00.686Z,8.34
2023-01-13T14:53:29.250Z,8.41
2023-01-13T14:55:56.215Z,8.42
2023-01-13T14:58:24.415Z,8.35
2023-01-13T15:00:51.994Z,8.34
2023-01-13T15:03:19.967Z,8.29
2023-01-13T15:05:48.223Z,8.28
2023-01-13T15:08:14.973Z,8.38
2023-01-13T15:10:46.800Z,8.39
2023-01-13T15:13:23.941Z,8.38
2023-01-13T15:15:55.509Z,8.42
2023-01-13T15:18:22.893Z,8.50
2023-01-13T15:20:52.939Z,8.48
2023-01-13T15:23:22.011Z,8.52
2023-01-13T15:25:48.718Z,8.63
2023-01-13T15:28:23.314Z,8.56
2023-01-13T15:30:51.549Z,8.57
2023-01-13T15:33:18.730Z,8.61
2023-01-13T15:35:46.935Z,8.59
2023-01-13T15:38:15.106Z,8.62
2023-01-13T15:40:43.378Z,8.61
2023-01-13T15:43:31.697Z,8.64
2023-01-13T15:46:16.744Z,8.62
2023-01-13T15:48:43.431Z,8.69
2023-01-13T15:51:13.794Z,8.66
2023-01-13T15:53:40.950Z,8.68
2023-01-13T15:56:12.551Z,8.66
2023-01-13T15:58:39.549Z,8.70
2023-01-13T16:01:06.496Z,8.65
2023-01-13T16:03:34.172Z,8.57
2023-01-13T16:06:01.226Z,8.56
2023-01-13T16:08:28.053Z,8.56
2023-01-13T16:10:54.928Z,8.64
2023-01-13T16:13:21.824Z,8.63
2023-01-13T16:15:49.585Z,8.60
2023-01-13T16:18:21.343Z,8.62
2023-01-13T16:20:52.793Z,8.68
2023-01-13T16:23:21.224Z,8.64
2023-01-13T16:25:49.360Z,8.69
2023-01-13T16:28:20.555Z,8.74
2023-01-13T16:30:47.568Z,8.71
2023-01-13T16:33:14.379Z,8.68
2023-01-13T16:36:08.968Z,8.68
2023-01-13T16:38:27.831Z,8.78
2023-01-13T16:40:56.791Z,8.74
2023-01-13T16:43:23.350Z,8.75
2023-01-13T16:45:50.567Z,8.77
2023-01-13T16:48:19.614Z,8.84
2023-01-13T16:50:46.759Z,8.87
2023-01-13T16:53:13.768Z,8.82
2023-01-13T16:55:41.862Z,8.83
2023-01-13T16:58:27.085Z,8.83
2023-01-13T17:00:53.709Z,8.80
2023-01-13T17:03:20.484Z,8.86
2023-01-13T17:05:47.711Z,8.83
2023-01-13T17:08:18.929Z,8.76
2023-01-13T17:10:46.677Z,8.67
2023-01-13T17:13:17.061Z,8.54
2023-01-13T17:15:45.101Z,8.48
2023-01-13T17:18:13.286Z,8.43
2023-01-13T17:20:40.460Z,8.43
2023-01-13T17:23:07.376Z,8.42
2023-01-13T17:25:34.046Z,8.48
2023-01-13T17:28:01.203Z,8.43
2023-01-13T17:30:28.211Z,8.40
2023-01-13T17:32:55.162Z,8.38
2023-01-13T17:35:24.770Z,8.46
2023-01-13T17:37:52.500Z,8.55
2023-01-13T17:40:19.835Z,8.57
2023-01-13T17:42:46.685Z,8.57
2023-01-13T17:45:13.330Z,8.61
2023-01-13T17:47:40.381Z,8.63
2023-01-13T17:50:07.386Z,8.60
2023-01-13T17:52:34.581Z,8.60
2023-01-13T17:55:01.308Z,8.64
2023-01-13T17:57:28.469Z,8.72
2023-01-13T17:59:55.147Z,8.69
2023-01-13T18:02:21.973Z,8.70
2023-01-13T18:04:49.180Z,8.72
2023-01-13T18:07:15.889Z,8.65
2023-01-13T18:09:42.774Z,8.66
2023-01-13T18:12:10.632Z,8.67
2023-01-13T18:14:37.273Z,8.64
2023-01-13T18:17:04.344Z,8.66
2023-01-13T18:19:50.127Z,8.62
2023-01-13T18:22:35.564Z,8.65
2023-01-13T18:25:22.127Z,8.69
2023-01-13T18:27:49.486Z,8.66
2023-01-13T18:30:16.296Z,8.71
2023-01-13T18:32:43.166Z,8.67
2023-01-13T18:35:10.721Z,8.64
2023-01-13T18:37:39.981Z,8.73
2023-01-13T18:40:07.909Z,8.67
2023-01-13T18:42:58.771Z,8.67
2023-01-13T18:45:27.497Z,8.72
2023-01-13T18:47:55.346Z,8.67
2023-01-13T18:50:23.071Z,8.76
2023-01-13T18:52:50.333Z,8.75
2023-01-13T18:55:16.949Z,8.70
2023-01-13T18:57:43.606Z,8.72
2023-01-13T19:00:12.449Z,8.81
2023-01-13T19:02:39.822Z,8.77
2023-01-13T19:05:07.035Z,8.81
2023-01-13T19:07:35.743Z,8.76
2023-01-13T19:10:04.269Z,8.78
2023-01-13T19:12:31.179Z,8.76
2023-01-13T19:14:58.461Z,8.78
2023-01-13T19:17:26.447Z,8.79
2023-01-13T19:19:55.538Z,8.84
2023-01-13T19:22:28.672Z,8.88
2023-01-13T19:24:56.139Z,8.87
2023-01-13T19:27:23.340Z,8.90
2023-01-13T19:29:52.353Z,8.90
2023-01-13T19:32:21.995Z,8.90
2023-01-13T19:34:51.163Z,8.97
2023-01-13T19:37:18.682Z,8.90
2023-01-13T19:39:45.461Z,8.95
2023-01-13T19:42:31.538Z,8.93
2023-01-13T19:45:16.965Z,9.02
2023-01-13T19:47:45.591Z,8.94
2023-01-13T19:50:13.482Z,8.94
2023-01-13T19:52:41.337Z,8.91
2023-01-13T19:55:08.284Z,8.93
2023-01-13T19:57:35.268Z,8.95
2023-01-13T20:00:03.415Z,8.86
2023-01-13T20:02:32.432Z,8.84
2023-01-13T20:05:00.137Z,8.88
2023-01-13T20:07:28.111Z,8.78
2023-01-13T20:09:58.098Z,8.78
2023-01-13T20:12:26.019Z,8.76
2023-01-13T20:14:53.193Z,8.78
2023-01-13T20:17:21.332Z,8.76
2023-01-13T20:19:48.168Z,8.74
2023-01-13T20:22:15.082Z,8.76
2023-01-13T20:24:41.860Z,8.74
2023-01-13T20:27:09.202Z,8.71
2023-01-13T20:29:35.989Z,8.66
2023-01-13T20:32:03.169Z,8.57
2023-01-13T20:34:30.280Z,8.57
2023-01-13T20:36:57.287Z,8.54
2023-01-13T20:39:26.513Z,8.51
2023-01-13T20:42:12.537Z,8.52
2023-01-13T20:44:40.134Z,8.48
2023-01-13T20:47:07.112Z,8.42
2023-01-13T20:49:36.371Z,8.39
2023-01-13T20:52:09.200Z,8.35
2023-01-13T20:54:40.421Z,8.33
2023-01-13T20:57:09.700Z,8.32
2023-01-13T20:59:37.168Z,8.27
2023-01-13T21:02:04.695Z,8.34
2023-01-13T21:04:31.379Z,8.20
2023-01-13T21:06:58.004Z,8.26
2023-01-13T21:09:24.788Z,8.17
2023-01-13T21:12:10.723Z,8.19
2023-01-13T21:14:56.326Z,8.18
2023-01-13T21:17:43.055Z,8.13
2023-01-13T21:20:11.408Z,8.16
2023-01-13T21:22:39.026Z,8.11
2023-01-13T21:25:06.046Z,8.08
2023-01-13T21:27:34.335Z,8.16
2023-01-13T21:30:01.491Z,8.07
2023-01-13T21:32:28.538Z,8.06
2023-01-13T21:34:55.465Z,8.09
2023-01-13T21:37:22.660Z,8.08
2023-01-13T21:39:49.586Z,8.10
2023-01-13T21:42:35.607Z,8.08
2023-01-13T21:45:20.876Z,8.14
2023-01-13T21:47:52.050Z,8.15
2023-01-13T21:50:20.383Z,8.16
2023-01-13T21:52:48.292Z,8.15
2023-01-13T21:55:28.852Z,8.20
2023-01-13T21:57:57.311Z,8.21
2023-01-13T22:00:25.840Z,8.26
2023-01-13T22:02:53.075Z,8.26
2023-01-13T22:05:21.770Z,8.28
2023-01-13T22:07:49.057Z,8.30
2023-01-13T22:10:17.261Z,8.31
2023-01-13T22:12:44.720Z,8.36
2023-01-13T22:15:12.943Z,8.42
2023-01-13T22:17:41.337Z,8.39
2023-01-13T22:20:09.150Z,8.36
2023-01-13T22:22:37.007Z,8.37
2023-01-13T22:25:07.072Z,8.46
2023-01-13T22:27:39.344Z,8.40
2023-01-13T22:30:09.452Z,8.37
2023-01-13T22:32:37.920Z,8.38
2023-01-13T22:35:05.939Z,8.50
2023-01-13T22:37:33.289Z,8.45
2023-01-13T22:40:01.343Z,8.43
2023-01-13T22:42:27.884Z,8.39
2023-01-13T22:44:54.934Z,8.41
2023-01-13T22:47:21.925Z,8.39
2023-01-13T22:49:49.516Z,8.37
2023-01-13T22:52:17.306Z,8.34
2023-01-13T22:54:44.355Z,8.37
2023-01-13T22:57:11.147Z,8.42
2023-01-13T22:59:38.225Z,8.41
2023-01-13T23:02:05.648Z,8.37
2023-01-13T23:04:32.767Z,8.44
2023-01-13T23:07:00.302Z,8.41
2023-01-13T23:09:29.903Z,8.42
2023-01-13T23:11:57.741Z,8.40
2023-01-13T23:14:24.805Z,8.45
2023-01-13T23:16:53.069Z,8.42
2023-01-13T23:19:20.499Z,8.44
2023-01-13T23:21:47.451Z,8.38
2023-01-13T23:24:14.513Z,8.37
2023-01-13T23:26:41.386Z,8.33
2023-01-13T23:29:10.956Z,8.38
2023-01-13T23:31:37.955Z,8.31
2023-01-13T23:34:04.861Z,8.15
2023-01-13T23:36:31.579Z,8.21
2023-01-13T23:38:59.350Z,8.15
2023-01-13T23:41:26.834Z,8.14
2023-01-13T23:43:58.508Z,8.09
2023-01-13T23:46:25.926Z,8.11
2023-01-13T23:48:55.068Z,8.13
2023-01-13T23:51:22.610Z,8.11
2023-01-13T23:53:50.635Z,8.14
2023-01-13T23:56:19.128Z,8.15
2023-01-13T23:58:46.308Z,8.06
